MiSS Sylvia — WDE5412 — position and weather

sailwx.info

Track history (hours):
 
Tides and Currents Weather Stations Pressure Air Temp Water Temp Dewpoint Dewpoint Depression Visibility Wind Speed Wind Dir Waves Ship Positions

MiSS Sylvia

Owner: DOUBLE J MARINE, LLC, LAPLACE, LA. More information available from US FCC via Universal Licensing System and Coast Guard Vessel Documentation Center.

Last reported at 2015-Jan-30 05:18 UTC. Time now 2015-Feb-01 14:48 UTC.
Position N 30°07' W 091°01'.

Length 20 m; draft 2.7 m.

Type: Towing. MMSI: 367366340.

Date/timePositionNaut miles runAvg speedWind from/ knotsBaromVisibWave heightAir tempDewpointWater temp
2015-Jan-30 05:18N 30°07' W 091°01'7 4.0
2015-Jan-30 03:33N 30°13' W 091°05'3 0.2
2015-Jan-29 10:32N 30°14' W 091°07'0 0.0
2015-Jan-29 09:33N 30°14' W 091°07'0 0.0
2015-Jan-29 08:33N 30°14' W 091°07'0 0.0
2015-Jan-29 07:29N 30°14' W 091°07'0 0.2
2015-Jan-29 06:34N 30°14' W 091°08'3 2.9
2015-Jan-29 05:34N 30°12' W 091°10'2 2.1
2015-Jan-29 04:31N 30°11' W 091°08'3 2.4
2015-Jan-29 03:16N 30°13' W 091°05'27 2.0
2015-Jan-28 13:33N 30°02' W 090°36'1 1.0
2015-Jan-28 12:04N 30°03' W 090°35'9 0.4
2015-Jan-27 11:13N 29°60' W 090°25'3 2.0
2015-Jan-27 09:31N 30°01' W 090°29'0 0.1
2015-Jan-27 08:16N 30°02' W 090°29'0 0.1
2015-Jan-27 07:33N 30°02' W 090°28'1 0.5
2015-Jan-27 06:24N 30°02' W 090°28'0 0.2
2015-Jan-27 04:30N 30°02' W 090°28'19 0.5
2015-Jan-25 12:30N 30°02' W 090°50'3 2.2
2015-Jan-25 11:17N 29°60' W 090°48'3 4.1
2015-Jan-25 10:30N 30°01' W 090°44'38 1.1
2015-Jan-23 23:13N 29°56' W 090°00'5 0.3
2015-Jan-23 07:28N 29°55' W 089°55'5 5.5
2015-Jan-23 06:32N 29°57' W 090°00'4 3.7
2015-Jan-23 05:33N 29°55' W 090°04'  
Track history (hours):
 
Tides and Currents Weather Stations Pressure Air Temp Water Temp Dewpoint Dewpoint Depression Visibility Wind Speed Wind Dir Waves Ship Positions

MiSS Sylvia

Owner: DOUBLE J MARINE, LLC, LAPLACE, LA. More information available from US FCC via Universal Licensing System and Coast Guard Vessel Documentation Center.

Last reported at 2015-Jan-30 05:18 UTC. Time now 2015-Feb-01 14:48 UTC.
Position N 30°07' W 091°01'.

Length 20 m; draft 2.7 m.

Type: Towing. MMSI: 367366340.

Date/timePositionNaut miles runAvg speedWind from/ knotsBaromVisibWave heightAir tempDewpointWater temp
2015-Jan-30 05:18N 30°07' W 091°01'7 4.0
2015-Jan-30 03:33N 30°13' W 091°05'3 0.2
2015-Jan-29 10:32N 30°14' W 091°07'0 0.0
2015-Jan-29 09:33N 30°14' W 091°07'0 0.0
2015-Jan-29 08:33N 30°14' W 091°07'0 0.0
2015-Jan-29 07:29N 30°14' W 091°07'0 0.2
2015-Jan-29 06:34N 30°14' W 091°08'3 2.9
2015-Jan-29 05:34N 30°12' W 091°10'2 2.1
2015-Jan-29 04:31N 30°11' W 091°08'3 2.4
2015-Jan-29 03:16N 30°13' W 091°05'27 2.0
2015-Jan-28 13:33N 30°02' W 090°36'1 1.0
2015-Jan-28 12:04N 30°03' W 090°35'9 0.4
2015-Jan-27 11:13N 29°60' W 090°25'3 2.0
2015-Jan-27 09:31N 30°01' W 090°29'0 0.1
2015-Jan-27 08:16N 30°02' W 090°29'0 0.1
2015-Jan-27 07:33N 30°02' W 090°28'1 0.5
2015-Jan-27 06:24N 30°02' W 090°28'0 0.2
2015-Jan-27 04:30N 30°02' W 090°28'19 0.5
2015-Jan-25 12:30N 30°02' W 090°50'3 2.2
2015-Jan-25 11:17N 29°60' W 090°48'3 4.1
2015-Jan-25 10:30N 30°01' W 090°44'38 1.1
2015-Jan-23 23:13N 29°56' W 090°00'5 0.3
2015-Jan-23 07:28N 29°55' W 089°55'5 5.5
2015-Jan-23 06:32N 29°57' W 090°00'4 3.7
2015-Jan-23 05:33N 29°55' W 090°04'  

Dump ship's entire track history